Etusivu
METAR-TAF:

METAR-TAF

Lentoasemat :

Gaylord Regional Airport (Otsego County Airport)

Gaylord, Michigan, Yhdysvallat

Leveyspiiri: 45-00-59N, Pituuspiiri: 084-41-20W, korkeus merenpinnasta: 404 m

Tämänhetkinen sää

Tämä raportti tehtiin 42 minuuttia sitten, kello 15.53 UTC
Tuuli 5 kn lännestä
Lämpötila 3°C
Kosteus 93%
Ilmanpaine 1013 hPa
Näkyvyys: 16.1 km
Muutamia pilviä 2200 ft:n korkeudessa
Hajanaisia pilviä 4900 ft:n korkeudessa
Hajonneita pilviä 8000 ft:n korkeudessa

METAR: KGLR 141553Z AUTO 26005KT 10SM FEW022 SCT049 BKN080 03/02 A2992 RMK AO2 RAE26B40E41SNB12E40B41E42 SLP146 P0008 T00330017

Aika: 12:35 (16:35 UTC)


TAF: puuttuu

Säähavainnot ja -ennusteet yli 4000 lentoasemalta (METAR- ja TAF-raportit).

Käytössä olevat sääasemat on merkitty karttaan keltaisilla ja punaisilla pisteillä.

Aseta hiiri pisteen päälle nähdäksesi sääaseman nimen.

Klikkaa sitten nähdäksesi säähavainnot ja -ennusteet.

Kartan vaihtaminen: klikkaa mustalla rastilla varustettuja vihreitä pisteitä, niin voit zoomata sisään; viivalla varustettua vihreää pistettä, niin voit zoomata ulos tai vihreitä nuolia, niin pääset viereisille kartoille.


METAR-TAF: